createdAt,value
2018-04-06T00:01:55.509Z,58.20
2018-04-06T00:06:01.197Z,58.40
2018-04-06T00:10:07.878Z,58.60
2018-04-06T00:14:14.583Z,58.70
2018-04-06T00:18:20.519Z,58.70
2018-04-06T00:22:26.225Z,58.00
2018-04-06T00:26:32.151Z,58.30
2018-04-06T00:30:38.245Z,57.80
2018-04-06T00:34:44.682Z,57.70
2018-04-06T00:38:51.137Z,58.10
2018-04-06T00:42:58.552Z,58.20
2018-04-06T00:47:04.498Z,58.10
2018-04-06T00:51:11.027Z,58.90
2018-04-06T00:55:17.767Z,59.80
2018-04-06T00:59:24.643Z,60.20
2018-04-06T01:03:32.360Z,60.20
2018-04-06T01:07:38.244Z,60.40
2018-04-06T01:11:44.240Z,60.80
2018-04-06T01:15:50.210Z,61.00
2018-04-06T01:19:55.990Z,61.40
2018-04-06T01:24:01.945Z,61.80
2018-04-06T01:28:07.795Z,62.40
2018-04-06T01:32:13.773Z,63.10
2018-04-06T01:36:19.611Z,63.70
2018-04-06T01:40:25.384Z,64.20
2018-04-06T01:44:32.010Z,63.90
2018-04-06T01:48:37.899Z,64.60
2018-04-06T01:52:43.653Z,65.50
2018-04-06T01:56:50.435Z,64.90
2018-04-06T02:00:58.036Z,64.10
2018-04-06T02:05:04.642Z,64.00
2018-04-06T02:09:12.589Z,65.00
2018-04-06T02:13:18.464Z,65.00
2018-04-06T02:17:25.429Z,66.90
2018-04-06T02:21:31.186Z,66.70
2018-04-06T02:25:36.935Z,67.30
2018-04-06T02:33:53.172Z,68.50
2018-04-06T02:38:00.130Z,68.20
2018-04-06T02:42:06.902Z,68.20
2018-04-06T02:46:12.397Z,68.10
2018-04-06T02:50:18.066Z,68.20
2018-04-06T02:54:28.006Z,68.30
2018-04-06T02:58:33.892Z,67.80
2018-04-06T03:02:39.696Z,68.40
2018-04-06T03:06:46.500Z,67.40
2018-04-06T03:10:52.362Z,68.10
2018-04-06T03:14:58.088Z,68.90
2018-04-06T03:19:03.792Z,69.30
2018-04-06T03:23:09.817Z,70.40
2018-04-06T03:27:16.176Z,70.40
2018-04-06T03:31:22.637Z,71.40
2018-04-06T03:35:29.372Z,71.80
2018-04-06T03:39:35.400Z,72.90
2018-04-06T03:43:41.887Z,73.90
2018-04-06T03:47:49.298Z,74.00
2018-04-06T03:51:54.969Z,74.10
2018-04-06T03:56:00.840Z,74.10
2018-04-06T04:00:06.881Z,74.60
2018-04-06T04:04:13.586Z,77.10
2018-04-06T04:08:21.234Z,76.80
2018-04-06T04:12:27.883Z,76.20
2018-04-06T04:16:34.187Z,76.20
2018-04-06T04:20:40.545Z,78.50
2018-04-06T04:24:47.758Z,77.00
2018-04-06T04:28:54.026Z,77.30
2018-04-06T04:33:00.112Z,78.70
2018-04-06T04:37:05.786Z,77.10
2018-04-06T04:41:11.594Z,75.10
2018-04-06T04:45:17.315Z,76.00
2018-04-06T04:49:23.205Z,76.30
2018-04-06T04:53:29.153Z,78.20
2018-04-06T04:57:35.776Z,80.00
2018-04-06T05:01:42.188Z,79.90
2018-04-06T05:05:48.253Z,78.30
2018-04-06T05:09:56.582Z,79.00
2018-04-06T05:14:02.709Z,78.90
2018-04-06T05:18:09.391Z,79.80
2018-04-06T05:22:15.247Z,79.70
2018-04-06T05:26:21.019Z,80.40
2018-04-06T05:30:26.792Z,83.40
2018-04-06T05:34:32.676Z,81.40
2018-04-06T05:38:39.889Z,81.40
2018-04-06T05:42:47.072Z,81.50
2018-04-06T05:46:52.775Z,81.50
2018-04-06T05:51:00.461Z,81.70
2018-04-06T05:55:06.367Z,84.10
2018-04-06T05:59:11.958Z,84.00
2018-04-06T06:03:17.886Z,82.60
2018-04-06T06:07:23.572Z,83.50
2018-04-06T06:11:30.635Z,84.10
2018-04-06T06:15:36.374Z,85.00
2018-04-06T06:19:42.303Z,85.90
2018-04-06T06:23:48.013Z,86.40
2018-04-06T06:27:53.801Z,86.60
2018-04-06T06:31:59.592Z,86.80
2018-04-06T06:36:05.687Z,86.40
2018-04-06T06:40:11.549Z,86.90
2018-04-06T06:44:17.271Z,86.40
2018-04-06T06:48:23.002Z,86.90
2018-04-06T06:52:28.777Z,85.60
2018-04-06T06:56:34.645Z,84.60
2018-04-06T07:00:40.626Z,86.20
2018-04-06T07:04:46.520Z,85.60
2018-04-06T07:08:53.033Z,86.60
2018-04-06T07:13:00.320Z,86.60
2018-04-06T07:17:06.268Z,86.80
2018-04-06T07:21:12.335Z,86.30
2018-04-06T07:25:18.388Z,85.80
2018-04-06T07:29:24.087Z,85.90
2018-04-06T07:33:30.151Z,84.90
2018-04-06T07:37:35.749Z,84.90
2018-04-06T07:41:41.644Z,82.80
2018-04-06T07:45:47.273Z,83.00
2018-04-06T07:49:53.122Z,84.10
2018-04-06T07:54:00.042Z,83.70
2018-04-06T07:58:06.082Z,83.60
2018-04-06T08:02:11.985Z,84.30
2018-04-06T08:06:17.602Z,84.40
2018-04-06T08:10:23.563Z,83.40
2018-04-06T08:14:31.044Z,84.70
2018-04-06T08:18:36.606Z,84.60
2018-04-06T08:22:42.568Z,83.50
2018-04-06T08:26:48.402Z,84.80
2018-04-06T08:30:54.311Z,83.20
2018-04-06T08:35:00.212Z,83.80
2018-04-06T08:39:06.428Z,83.90
2018-04-06T08:43:12.059Z,84.20
2018-04-06T08:47:17.860Z,84.40
2018-04-06T08:51:24.386Z,85.40
2018-04-06T08:55:30.308Z,84.70
2018-04-06T08:59:37.069Z,85.40
2018-04-06T09:03:42.984Z,85.40
2018-04-06T09:07:49.246Z,85.80
2018-04-06T09:11:56.022Z,86.00
2018-04-06T09:16:03.274Z,85.90
2018-04-06T09:20:09.168Z,85.40
2018-04-06T09:24:15.027Z,85.20
2018-04-06T09:28:21.384Z,85.60
2018-04-06T09:32:27.101Z,85.60
2018-04-06T09:36:33.767Z,86.70
2018-04-06T09:40:40.100Z,86.70
2018-04-06T09:44:45.810Z,89.00
2018-04-06T09:48:52.590Z,88.60
2018-04-06T09:52:58.223Z,88.60
2018-04-06T09:57:04.848Z,86.80
2018-04-06T10:01:11.190Z,88.60
2018-04-06T10:05:17.892Z,87.30
2018-04-06T10:09:24.085Z,86.40
2018-04-06T10:13:30.766Z,85.30
2018-04-06T10:17:38.475Z,87.00
2018-04-06T10:21:44.051Z,86.90
2018-04-06T10:25:49.743Z,86.00
2018-04-06T10:29:56.305Z,86.90
2018-04-06T10:34:02.167Z,86.90
2018-04-06T10:38:08.347Z,86.80
2018-04-06T10:42:14.200Z,86.90
2018-04-06T10:46:20.437Z,87.20
2018-04-06T10:50:26.717Z,88.00
2018-04-06T10:54:32.492Z,89.10
2018-04-06T10:58:38.102Z,89.70
2018-04-06T11:02:44.788Z,89.30
2018-04-06T11:06:50.537Z,89.30
2018-04-06T11:10:56.320Z,90.00
2018-04-06T11:15:03.015Z,90.10
2018-04-06T11:19:10.670Z,90.10
2018-04-06T11:23:16.249Z,90.30
2018-04-06T11:27:21.725Z,90.50
2018-04-06T11:31:27.435Z,90.40
2018-04-06T11:35:33.417Z,90.30
2018-04-06T11:39:39.089Z,90.50
2018-04-06T11:43:46.061Z,90.70
2018-04-06T11:47:51.862Z,90.70
2018-04-06T11:51:58.392Z,90.60
2018-04-06T11:56:04.691Z,90.50
2018-04-06T12:00:11.208Z,90.90
2018-04-06T12:04:17.303Z,90.40
2018-04-06T12:08:23.199Z,90.30
2018-04-06T12:12:28.812Z,90.60
2018-04-06T12:16:34.704Z,90.80
2018-04-06T12:20:42.050Z,90.70
2018-04-06T12:24:47.689Z,90.70
2018-04-06T12:28:53.698Z,90.80
2018-04-06T12:32:59.223Z,91.00
2018-04-06T12:37:06.063Z,90.90
2018-04-06T12:41:11.867Z,90.90
2018-04-06T12:45:17.558Z,91.00
2018-04-06T12:49:23.380Z,91.10
2018-04-06T12:53:29.223Z,91.30
2018-04-06T12:57:34.952Z,91.30
2018-04-06T13:01:40.826Z,91.50
2018-04-06T13:05:46.762Z,91.50
2018-04-06T13:09:53.064Z,91.60
2018-04-06T13:13:58.557Z,91.60
2018-04-06T13:18:04.494Z,91.80
2018-04-06T13:22:11.001Z,91.80
2018-04-06T13:26:16.903Z,91.70
2018-04-06T13:30:22.714Z,91.90
2018-04-06T13:34:29.392Z,91.90
2018-04-06T13:38:35.196Z,91.90
2018-04-06T13:42:41.797Z,91.90
2018-04-06T13:46:47.734Z,91.90
2018-04-06T13:50:53.442Z,92.00
2018-04-06T13:54:59.081Z,91.80
2018-04-06T13:59:05.404Z,91.50
2018-04-06T14:03:11.889Z,91.30
2018-04-06T14:07:17.981Z,91.00
2018-04-06T14:11:24.793Z,91.00
2018-04-06T14:15:31.359Z,90.50
2018-04-06T14:19:37.068Z,90.40
2018-04-06T14:23:43.552Z,90.20
2018-04-06T14:27:49.516Z,90.00
2018-04-06T14:31:55.429Z,89.60
2018-04-06T14:36:01.240Z,88.90
2018-04-06T14:40:07.629Z,88.60
2018-04-06T14:44:13.346Z,87.70
2018-04-06T14:48:18.945Z,86.60
2018-04-06T14:52:24.685Z,85.40
2018-04-06T14:56:30.628Z,84.50
2018-04-06T15:00:36.447Z,84.10
2018-04-06T15:04:42.444Z,84.00
2018-04-06T15:08:48.866Z,84.10
2018-04-06T15:12:54.914Z,84.00
2018-04-06T15:17:00.781Z,85.10
2018-04-06T15:21:07.470Z,84.80
2018-04-06T15:25:14.515Z,84.80
2018-04-06T15:29:20.444Z,85.20
2018-04-06T15:33:26.171Z,84.80
2018-04-06T15:37:31.970Z,84.00
2018-04-06T15:41:38.053Z,83.50
2018-04-06T15:45:43.998Z,82.00
2018-04-06T15:49:49.739Z,82.20
2018-04-06T15:53:55.475Z,81.50
2018-04-06T15:58:02.260Z,78.50
2018-04-06T16:02:08.482Z,78.40
2018-04-06T16:06:14.760Z,78.30
2018-04-06T16:10:21.237Z,77.10
2018-04-06T16:14:27.958Z,75.90
2018-04-06T16:18:34.319Z,76.60
2018-04-06T16:22:40.509Z,74.10
2018-04-06T16:26:48.494Z,74.40
2018-04-06T16:30:54.261Z,75.00
2018-04-06T16:35:00.030Z,73.00
2018-04-06T16:39:07.553Z,72.40
2018-04-06T16:43:14.168Z,71.60
2018-04-06T16:47:20.876Z,72.20
2018-04-06T16:51:26.657Z,72.20
2018-04-06T16:55:32.304Z,71.50
2018-04-06T16:59:38.056Z,70.40
2018-04-06T17:03:43.785Z,68.70
2018-04-06T17:07:49.761Z,67.40
2018-04-06T17:11:55.488Z,67.00
2018-04-06T17:16:01.346Z,67.40
2018-04-06T17:20:07.926Z,67.00
2018-04-06T17:24:14.740Z,67.00
2018-04-06T17:28:21.701Z,66.90
2018-04-06T17:32:27.744Z,66.20
2018-04-06T17:36:33.837Z,64.30
2018-04-06T17:40:40.032Z,65.80
2018-04-06T17:44:45.836Z,65.20
2018-04-06T17:48:51.829Z,65.50
2018-04-06T17:52:57.514Z,64.40
2018-04-06T17:57:03.333Z,65.10
2018-04-06T18:01:09.239Z,63.90
2018-04-06T18:05:16.218Z,62.90
2018-04-06T18:09:22.394Z,62.80
2018-04-06T18:13:29.079Z,62.00
2018-04-06T18:17:34.846Z,62.00
2018-04-06T18:21:40.706Z,61.10
2018-04-06T18:25:47.264Z,63.20
2018-04-06T18:29:54.172Z,62.30
2018-04-06T18:34:00.068Z,61.70
2018-04-06T18:38:06.340Z,61.20
2018-04-06T18:42:12.319Z,60.30
2018-04-06T18:46:18.052Z,60.20
2018-04-06T18:50:25.232Z,60.70
2018-04-06T18:54:31.154Z,60.10
2018-04-06T18:58:37.157Z,59.10
2018-04-06T19:02:43.355Z,58.30
2018-04-06T19:06:49.120Z,58.50
2018-04-06T19:10:56.095Z,58.70
2018-04-06T19:15:02.949Z,59.00
2018-04-06T19:19:09.084Z,58.90
2018-04-06T19:23:15.272Z,58.80
2018-04-06T19:27:21.440Z,59.30
2018-04-06T19:31:28.768Z,58.50
2018-04-06T19:35:34.595Z,58.50
2018-04-06T19:39:40.342Z,57.60
2018-04-06T19:43:46.279Z,57.30
2018-04-06T19:47:51.827Z,57.40
2018-04-06T19:51:59.683Z,56.60
2018-04-06T19:56:05.514Z,56.60
2018-04-06T20:00:11.297Z,56.60
2018-04-06T20:04:16.977Z,56.20
2018-04-06T20:08:23.264Z,55.40
2018-04-06T20:12:29.732Z,55.80
2018-04-06T20:16:35.756Z,55.80
2018-04-06T20:20:41.374Z,56.40
2018-04-06T20:24:47.541Z,55.00
2018-04-06T20:28:53.561Z,55.50
2018-04-06T20:33:01.342Z,55.80
2018-04-06T20:37:08.052Z,55.70
2018-04-06T20:41:18.004Z,55.60
2018-04-06T20:45:24.063Z,55.50
2018-04-06T20:49:30.539Z,55.50
2018-04-06T20:53:37.605Z,55.40
2018-04-06T20:57:44.998Z,55.40
2018-04-06T21:01:50.913Z,55.40
2018-04-06T21:05:57.380Z,55.60
2018-04-06T21:10:03.395Z,55.30
2018-04-06T21:14:09.566Z,55.50
2018-04-06T21:18:16.190Z,55.30
2018-04-06T21:22:22.240Z,55.20
2018-04-06T21:26:27.982Z,55.10
2018-04-06T21:30:33.735Z,54.80
2018-04-06T21:34:40.523Z,54.60
2018-04-06T21:38:46.319Z,53.80
2018-04-06T21:42:52.243Z,54.10
2018-04-06T21:46:58.193Z,53.70
2018-04-06T21:51:05.090Z,54.10
2018-04-06T21:55:11.133Z,53.40
2018-04-06T21:59:17.083Z,54.00
2018-04-06T22:03:23.180Z,53.80
2018-04-06T22:07:29.327Z,53.00
2018-04-06T22:11:35.932Z,53.10
2018-04-06T22:15:43.467Z,52.70
2018-04-06T22:19:49.404Z,52.70
2018-04-06T22:23:55.130Z,52.50
2018-04-06T22:28:00.967Z,52.70
2018-04-06T22:32:07.636Z,51.50
2018-04-06T22:36:14.762Z,51.50
2018-04-06T22:40:21.089Z,51.40
2018-04-06T22:44:26.939Z,51.30
2018-04-06T22:48:33.111Z,50.80
2018-04-06T22:52:40.006Z,51.00
2018-04-06T22:56:47.303Z,51.00
2018-04-06T23:00:54.065Z,51.90
2018-04-06T23:05:00.644Z,51.90
2018-04-06T23:09:07.198Z,51.90
2018-04-06T23:13:13.008Z,52.10
2018-04-06T23:17:18.954Z,51.90
2018-04-06T23:21:25.217Z,52.40
2018-04-06T23:25:35.165Z,52.80
2018-04-06T23:29:41.143Z,53.60
2018-04-06T23:33:47.054Z,54.20
2018-04-06T23:37:53.968Z,54.20
2018-04-06T23:41:59.819Z,54.20
2018-04-06T23:46:05.998Z,53.60
2018-04-06T23:50:11.561Z,53.10
2018-04-06T23:54:17.562Z,53.30
2018-04-06T23:58:23.337Z,54.00
